Terminal Aerodrome Forecast
Issued by NWS

Home | Current Version | Previous Version | Text Only | Print | Product List | Glossary On
Versions: 1 2 3 4 5 6 7 8 9 10 11 12 13 14 15 16
165
FTUS42 KTAE 260521
TAFDHN
TAF
KDHN 260521Z 2606/2706 00000KT P6SM FEW026 SCT070
     FM261100 18002KT 5SM BR SCT020
     FM261600 14007KT P6SM VCTS SCT040CB
     FM270000 14004KT P6SM BKN050=

USA.gov is the U.S. government's official web portal to all federal, state and local government web resources and services.